Terminal Aerodrome Forecast
Issued by NWS Louisville, KY

Home | Current Version | Previous Version | Text Only | Print | Product List | Glossary On
Versions: 1 2 3 4 5 6 7 8 9 10 11 12 13 14 15 16 17 18 19 20
000
FTUS43 KLMK 290218 AAA
TAFLEX
TAF AMD
KLEX 290218Z 2902/2924 01006KT P6SM OVC040
      TEMPO 2904/2907 BKN025
     FM290700 05006KT 5SM BR OVC018
     FM291500 07009KT P6SM BKN022
     FM291900 07010KT P6SM SCT025 BKN200=

USA.gov is the U.S. government's official web portal to all federal, state and local government web resources and services.